Time;durP1;ratioP1;P1;durP2;ratioP2;P2;SDS_P1;SDS_P2;PMS_P1;PMS_P2;Temp;Humidity;BMP_temperature;BMP_pressure;BME280_temperature;BME280_humidity;BME280_pressure;Samples;Min_cycle;Max_cycle;Signal;HPM_P1;HPM_P2
2020/12/14 00:01:38;;;;;;;9.15;5.47;;;4.70;99.90;;;;;;5066288;28;20387;-52
2020/12/14 00:04:04;;;;;;;13.93;8.87;;;4.70;99.90;;;;;;5068612;28;20402;-51
2020/12/14 00:06:31;;;;;;;26.08;16.05;;;4.70;99.90;;;;;;5060668;28;20393;-51
2020/12/14 00:08:57;;;;;;;7.68;5.00;;;4.70;99.90;;;;;;5063740;28;20752;-53
2020/12/14 00:11:33;;;;;;;14.65;8.27;;;4.70;99.90;;;;;;5060655;28;20440;-51
2020/12/14 00:13:59;;;;;;;8.03;5.13;;;4.70;99.90;;;;;;5061046;28;20732;-52
2020/12/14 00:16:25;;;;;;;39.55;20.88;;;4.70;99.90;;;;;;5064083;28;20395;-54
2020/12/14 00:18:51;;;;;;;9.50;5.82;;;4.70;99.90;;;;;;5065194;28;20393;-51
2020/12/14 00:21:17;;;;;;;12.38;7.88;;;4.70;99.90;;;;;;5063632;28;20391;-52
2020/12/14 00:23:47;;;;;;;12.52;7.30;;;4.70;99.90;;;;;;5064203;28;20367;-54
2020/12/14 00:26:16;;;;;;;10.35;5.22;;;4.70;99.90;;;;;;5064205;28;20397;-51
2020/12/14 00:28:42;;;;;;;11.15;7.13;;;4.70;99.90;;;;;;5061913;28;20376;-53
2020/12/14 00:31:08;;;;;;;9.18;5.75;;;4.70;99.90;;;;;;5062505;28;20425;-52
2020/12/14 00:33:34;;;;;;;8.13;4.90;;;4.70;99.90;;;;;;5066158;28;20407;-52
2020/12/14 00:36:00;;;;;;;8.40;4.47;;;4.80;99.90;;;;;;5061341;28;20751;-54
2020/12/14 00:38:26;;;;;;;7.30;4.20;;;4.70;99.90;;;;;;5066362;28;20393;-53
2020/12/14 00:40:52;;;;;;;7.93;4.40;;;4.70;99.90;;;;;;5061602;28;20982;-54
2020/12/14 00:43:19;;;;;;;9.82;6.10;;;4.70;99.90;;;;;;5064468;28;20373;-51
2020/12/14 00:45:45;;;;;;;7.38;4.60;;;4.70;99.90;;;;;;5064153;28;20874;-51
2020/12/14 00:48:11;;;;;;;8.55;5.25;;;4.80;99.90;;;;;;5066860;28;20397;-50
2020/12/14 00:50:37;;;;;;;7.78;4.72;;;4.80;99.90;;;;;;5067812;28;20889;-51
2020/12/14 00:53:03;;;;;;;8.73;4.57;;;4.80;99.90;;;;;;5069725;28;20890;-51
2020/12/14 00:55:29;;;;;;;7.00;4.47;;;4.80;99.90;;;;;;5069174;28;20393;-52
2020/12/14 00:57:55;;;;;;;9.43;6.53;;;4.80;99.90;;;;;;5063797;28;20390;-52
2020/12/14 01:00:21;;;;;;;7.93;5.20;;;4.80;99.90;;;;;;5063063;28;20453;-52
2020/12/14 01:02:47;;;;;;;10.57;6.97;;;4.80;99.90;;;;;;5062974;28;20401;-53
2020/12/14 01:05:14;;;;;;;12.63;7.70;;;4.80;99.90;;;;;;5065441;28;20457;-51
2020/12/14 01:07:40;;;;;;;13.55;7.93;;;4.80;99.90;;;;;;5065498;28;20395;-51
2020/12/14 01:10:06;;;;;;;8.07;5.03;;;4.80;99.90;;;;;;5068095;28;20390;-51
2020/12/14 01:12:32;;;;;;;9.20;6.28;;;4.80;99.90;;;;;;5064799;28;20402;-53
2020/12/14 01:14:58;;;;;;;10.32;5.78;;;4.80;99.90;;;;;;5067951;28;20397;-53
2020/12/14 01:17:24;;;;;;;9.23;6.03;;;4.80;99.90;;;;;;5059818;28;20384;-51
2020/12/14 01:19:50;;;;;;;11.27;6.60;;;4.80;99.90;;;;;;5065542;28;20755;-51
2020/12/14 01:22:16;;;;;;;8.25;5.05;;;4.80;99.90;;;;;;5064818;28;20398;-51
2020/12/14 01:24:43;;;;;;;9.02;5.25;;;4.80;99.90;;;;;;5061088;28;20401;-51
2020/12/14 01:27:09;;;;;;;8.35;5.00;;;4.80;99.90;;;;;;5063930;28;20762;-51
2020/12/14 01:29:35;;;;;;;9.40;5.18;;;4.80;99.90;;;;;;5062787;28;20416;-52
2020/12/14 01:32:01;;;;;;;9.05;5.18;;;4.80;99.90;;;;;;5061245;28;20416;-55
2020/12/14 01:34:27;;;;;;;8.93;5.55;;;4.80;99.90;;;;;;5064289;28;20748;-54
2020/12/14 01:36:53;;;;;;;10.50;5.30;;;4.80;99.90;;;;;;5060534;28;20890;-51
2020/12/14 01:39:19;;;;;;;11.50;5.87;;;4.80;99.90;;;;;;5061765;28;20893;-51
2020/12/14 01:41:45;;;;;;;9.50;6.20;;;4.80;99.90;;;;;;5065674;28;20420;-52
2020/12/14 01:44:12;;;;;;;12.15;5.85;;;4.80;99.90;;;;;;5065973;28;20941;-51
2020/12/14 01:46:41;;;;;;;9.35;5.47;;;4.80;99.90;;;;;;5064051;28;20777;-54
2020/12/14 01:49:07;;;;;;;9.63;5.43;;;4.90;99.90;;;;;;5056750;28;20391;-51
2020/12/14 01:51:33;;;;;;;11.38;7.30;;;4.80;99.90;;;;;;5064598;28;20410;-52
2020/12/14 01:54:07;;;;;;;8.75;5.60;;;4.80;99.90;;;;;;5065186;28;20735;-52
2020/12/14 01:56:33;;;;;;;10.23;5.60;;;4.80;99.90;;;;;;5062889;28;20372;-52
2020/12/14 01:59:00;;;;;;;11.50;6.18;;;4.80;99.90;;;;;;5060285;28;20395;-51
2020/12/14 02:01:26;;;;;;;9.52;5.53;;;4.90;99.90;;;;;;5061645;28;20390;-54
2020/12/14 02:03:52;;;;;;;8.80;5.30;;;4.90;99.90;;;;;;5063836;28;20878;-51
2020/12/14 02:06:18;;;;;;;7.93;5.57;;;4.90;99.90;;;;;;5062123;28;20402;-51
2020/12/14 02:08:44;;;;;;;9.70;5.75;;;4.90;99.90;;;;;;5061296;28;20398;-51
2020/12/14 02:11:10;;;;;;;8.85;5.63;;;4.90;99.90;;;;;;5062864;28;20421;-51
2020/12/14 02:13:36;;;;;;;10.63;5.90;;;4.90;99.90;;;;;;5044781;28;20390;-51
2020/12/14 02:16:02;;;;;;;8.85;5.50;;;4.90;99.90;;;;;;5068729;28;20389;-54
2020/12/14 02:18:29;;;;;;;10.68;5.28;;;4.90;99.90;;;;;;5060668;28;20714;-52
2020/12/14 02:20:55;;;;;;;8.52;5.45;;;4.90;99.90;;;;;;5061789;28;21170;-51
2020/12/14 02:23:21;;;;;;;8.43;5.30;;;4.90;99.90;;;;;;5068684;28;20713;-51
2020/12/14 02:25:47;;;;;;;10.43;5.63;;;4.90;99.90;;;;;;5061379;28;20366;-55
2020/12/14 02:28:13;;;;;;;9.30;5.90;;;4.80;99.90;;;;;;5060511;28;20372;-52
2020/12/14 02:30:39;;;;;;;9.73;5.57;;;4.70;99.90;;;;;;5067663;28;20386;-54
2020/12/14 02:33:05;;;;;;;9.90;5.97;;;4.60;99.90;;;;;;5063482;28;20433;-51
2020/12/14 02:35:31;;;;;;;10.27;5.93;;;4.50;99.90;;;;;;5068344;28;20405;-52
2020/12/14 02:37:58;;;;;;;8.73;5.68;;;4.50;99.90;;;;;;5065417;28;20412;-52
2020/12/14 02:40:24;;;;;;;10.30;5.78;;;4.40;99.90;;;;;;5061503;28;20366;-52
2020/12/14 02:42:50;;;;;;;10.82;6.55;;;4.40;99.90;;;;;;5059735;28;20394;-51
2020/12/14 02:45:16;;;;;;;10.73;6.63;;;4.40;99.90;;;;;;5060102;28;20371;-51
2020/12/14 02:47:42;;;;;;;11.80;6.53;;;4.40;99.90;;;;;;5064922;28;20440;-52
2020/12/14 02:50:08;;;;;;;9.32;6.28;;;4.30;99.90;;;;;;5063524;28;20743;-51
2020/12/14 02:52:34;;;;;;;9.73;6.15;;;4.20;99.90;;;;;;5065170;28;20411;-51
2020/12/14 02:55:00;;;;;;;11.63;6.20;;;4.20;99.90;;;;;;5063389;28;20386;-52
2020/12/14 02:57:26;;;;;;;10.32;6.22;;;4.20;99.90;;;;;;5058241;28;20914;-51
2020/12/14 02:59:53;;;;;;;11.35;6.47;;;4.20;99.90;;;;;;5065507;28;20386;-51
2020/12/14 03:02:19;;;;;;;10.32;6.30;;;4.20;99.90;;;;;;5060827;28;20390;-51
2020/12/14 03:04:45;;;;;;;11.23;6.33;;;4.10;99.90;;;;;;5062834;28;20404;-51
2020/12/14 03:07:11;;;;;;;10.07;6.30;;;4.10;99.90;;;;;;5057105;28;20417;-51
2020/12/14 03:09:37;;;;;;;11.65;6.32;;;4.10;99.90;;;;;;5065384;28;20830;-51
2020/12/14 03:12:03;;;;;;;11.35;6.45;;;4.00;99.90;;;;;;5065085;28;20500;-51
2020/12/14 03:14:29;;;;;;;10.93;6.10;;;4.10;99.90;;;;;;5067713;28;20397;-51
2020/12/14 03:16:56;;;;;;;;;;;4.10;99.90;;;;;;5059758;28;20041;-51
2020/12/14 03:19:22;;;;;;;;;;;4.10;99.90;;;;;;5067910;28;19909;-51
2020/12/14 03:21:48;;;;;;;;;;;4.00;99.90;;;;;;5064716;28;20300;-51
2020/12/14 03:24:14;;;;;;;;;;;4.00;99.90;;;;;;5066995;28;19916;-50
2020/12/14 03:26:40;;;;;;;;;;;4.00;99.90;;;;;;5068778;28;19912;-51
2020/12/14 03:29:06;;;;;;;;;;;4.00;99.90;;;;;;5067652;28;20379;-51
2020/12/14 03:31:32;;;;;;;;;;;4.00;99.90;;;;;;5071174;28;19944;-52
2020/12/14 03:34:01;;;;;;;;;;;4.00;99.90;;;;;;5073918;28;19916;-51
2020/12/14 03:36:27;;;;;;;;;;;3.90;99.90;;;;;;5070557;28;19927;-50
2020/12/14 03:38:53;;;;;;;;;;;3.90;99.90;;;;;;5068541;28;19916;-51
2020/12/14 03:41:20;;;;;;;;;;;3.80;99.90;;;;;;5067442;28;20388;-51
2020/12/14 03:43:46;;;;;;;;;;;3.80;99.90;;;;;;5076731;28;19916;-51
2020/12/14 03:46:22;;;;;;;;;;;3.80;99.90;;;;;;5068297;28;19924;-51
2020/12/14 03:48:48;;;;;;;;;;;3.80;99.90;;;;;;5067245;28;19905;-53
2020/12/14 03:51:14;;;;;;;;;;;3.80;99.90;;;;;;5068380;28;19911;-51
2020/12/14 03:53:40;;;;;;;;;;;3.80;99.90;;;;;;5065309;28;19913;-51
2020/12/14 03:56:06;;;;;;;;;;;3.80;99.90;;;;;;5066158;28;19908;-51
2020/12/14 03:58:32;;;;;;;11.25;5.53;;;3.80;99.90;;;;;;5063092;28;20189;-50
2020/12/14 04:00:58;;;;;;;9.55;5.57;;;3.80;99.90;;;;;;5064287;28;20175;-52
2020/12/14 04:03:25;;;;;;;10.13;5.78;;;3.80;99.90;;;;;;5065876;28;20177;-50
2020/12/14 04:05:52;;;;;;;10.18;5.88;;;3.70;99.90;;;;;;5063610;28;20178;-52
2020/12/14 04:08:18;;;;;;;12.63;6.07;;;3.70;99.90;;;;;;5067460;28;20174;-51
2020/12/14 04:10:44;;;;;;;11.43;6.00;;;3.70;99.90;;;;;;5065247;28;20186;-51
2020/12/14 04:13:10;;;;;;;12.80;6.70;;;3.70;99.90;;;;;;5067505;28;20609;-51
2020/12/14 04:15:36;;;;;;;13.88;6.97;;;3.70;99.90;;;;;;5070730;28;20178;-51
2020/12/14 04:18:02;;;;;;;11.88;6.40;;;3.70;99.90;;;;;;5068794;28;20194;-48
2020/12/14 04:20:29;;;;;;;14.23;7.10;;;3.70;99.90;;;;;;5065982;28;20636;-50
2020/12/14 04:22:55;;;;;;;11.20;6.47;;;3.60;99.90;;;;;;5067300;28;20189;-51
2020/12/14 04:25:22;;;;;;;14.35;6.85;;;3.60;99.90;;;;;;5084106;28;20584;-49
2020/12/14 04:27:48;;;;;;;13.25;7.13;;;3.60;99.90;;;;;;5066788;28;21747;-49
2020/12/14 04:30:14;;;;;;;12.82;6.93;;;3.60;99.90;;;;;;5064317;28;20626;-48
2020/12/14 04:32:40;;;;;;;11.80;6.50;;;3.60;99.90;;;;;;5066826;28;20233;-50
2020/12/14 04:35:06;;;;;;;12.45;6.82;;;3.60;99.90;;;;;;5068861;28;20197;-50
2020/12/14 04:37:33;;;;;;;11.73;6.70;;;3.60;99.90;;;;;;5060850;28;20182;-49
2020/12/14 04:39:59;;;;;;;12.88;6.93;;;3.60;99.90;;;;;;5070138;28;20214;-49
2020/12/14 04:42:25;;;;;;;14.88;6.88;;;3.60;99.90;;;;;;5063482;28;20650;-51
2020/12/14 04:44:54;;;;;;;11.07;6.05;;;3.60;99.90;;;;;;5063067;28;20193;-51
2020/12/14 04:47:21;;;;;;;10.07;5.55;;;3.60;99.90;;;;;;5065133;28;20277;-49
2020/12/14 04:49:50;;;;;;;13.38;6.57;;;3.60;99.90;;;;;;5062661;28;20532;-48
2020/12/14 04:52:17;;;;;;;10.55;5.53;;;3.60;99.90;;;;;;5077390;28;20577;-50
2020/12/14 04:54:47;;;;;;;8.90;5.10;;;3.60;99.90;;;;;;5062268;28;20183;-51
2020/12/14 04:57:19;;;;;;;10.90;5.40;;;3.70;99.90;;;;;;5062561;28;20512;-52
2020/12/14 04:59:45;;;;;;;14.93;6.13;;;3.60;99.90;;;;;;5062605;28;20162;-49
2020/12/14 05:02:11;;;;;;;12.38;6.35;;;3.60;99.90;;;;;;5068626;28;20269;-50
2020/12/14 05:04:40;;;;;;;9.88;5.43;;;3.60;99.90;;;;;;5067831;28;20193;-50
2020/12/14 05:07:07;;;;;;;13.85;6.15;;;3.60;99.90;;;;;;5062570;28;20188;-49
2020/12/14 05:09:33;;;;;;;9.57;5.93;;;3.60;99.90;;;;;;5065314;28;20514;-49
2020/12/14 05:11:59;;;;;;;9.40;5.70;;;3.60;99.90;;;;;;5068508;28;20642;-50
2020/12/14 05:14:30;;;;;;;13.77;6.50;;;3.60;99.90;;;;;;5065107;28;20206;-48
2020/12/14 05:16:56;;;;;;;10.75;5.47;;;3.60;99.90;;;;;;5064819;28;20637;-49
2020/12/14 05:19:28;;;;;;;9.27;4.88;;;3.60;99.90;;;;;;5066581;28;20201;-50
2020/12/14 05:22:01;;;;;;;12.05;5.82;;;3.50;99.90;;;;;;5064043;28;20635;-49
2020/12/14 05:24:28;;;;;;;9.55;5.60;;;3.60;99.90;;;;;;5062826;28;20162;-49
2020/12/14 05:26:54;;;;;;;15.27;5.60;;;3.50;99.90;;;;;;5062428;28;20220;-48
2020/12/14 05:29:30;;;;;;;10.48;5.82;;;3.50;99.90;;;;;;5061916;28;20182;-48
2020/12/14 05:32:10;;;;;;;9.23;5.55;;;3.50;99.90;;;;;;5058878;28;20216;-50
2020/12/14 05:34:37;;;;;;;11.48;6.10;;;3.50;99.90;;;;;;5067687;28;20181;-48
2020/12/14 05:37:11;;;;;;;10.60;5.47;;;3.50;99.90;;;;;;5062309;28;20187;-49
2020/12/14 05:39:41;;;;;;;7.57;4.85;;;3.50;99.90;;;;;;5062141;28;20193;-49
2020/12/14 05:42:11;;;;;;;12.55;5.28;;;3.50;99.90;;;;;;5062319;28;20189;-48
2020/12/14 05:44:37;;;;;;;9.10;4.88;;;3.50;99.90;;;;;;5062739;28;20177;-49
2020/12/14 05:47:03;;;;;;;9.65;4.88;;;3.50;99.90;;;;;;5058407;28;20166;-48
2020/12/14 05:49:30;;;;;;;7.82;4.57;;;3.50;99.90;;;;;;5061742;28;20198;-49
2020/12/14 05:52:02;;;;;;;10.25;4.65;;;3.60;99.90;;;;;;5064581;28;20209;-49
2020/12/14 05:54:36;;;;;;;10.27;4.35;;;3.50;99.90;;;;;;5061025;28;20158;-48
2020/12/14 05:57:05;;;;;;;8.63;4.82;;;3.50;99.90;;;;;;5062558;28;20178;-49
2020/12/14 05:59:34;;;;;;;7.97;4.80;;;3.50;99.90;;;;;;5062510;28;20169;-48
2020/12/14 06:02:04;;;;;;;11.20;4.82;;;3.40;99.90;;;;;;5058383;28;20169;-49
2020/12/14 06:04:34;;;;;;;10.45;4.55;;;3.50;99.90;;;;;;5067567;28;20173;-50
2020/12/14 06:07:02;;;;;;;8.85;4.93;;;3.50;99.90;;;;;;5061890;28;20185;-50
2020/12/14 06:09:28;;;;;;;8.32;4.80;;;3.40;99.90;;;;;;5063636;28;20186;-49
2020/12/14 06:11:55;;;;;;;9.25;4.78;;;3.50;99.90;;;;;;5062120;28;20214;-49
2020/12/14 06:14:21;;;;;;;7.75;4.93;;;3.40;99.90;;;;;;5061899;28;20284;-50
2020/12/14 06:16:47;;;;;;;8.93;4.35;;;3.40;99.90;;;;;;5068927;28;20181;-49
2020/12/14 06:19:14;;;;;;;7.40;4.50;;;3.50;99.90;;;;;;5062736;28;20190;-49
2020/12/14 06:21:58;;;;;;;10.15;5.07;;;3.50;99.90;;;;;;5059594;28;20172;-48
2020/12/14 06:24:24;;;;;;;9.48;4.78;;;3.50;99.90;;;;;;5065010;28;20193;-48
2020/12/14 06:26:50;;;;;;;6.78;4.20;;;3.40;99.90;;;;;;5064228;28;20178;-50
2020/12/14 06:29:33;;;;;;;7.57;4.38;;;3.40;99.90;;;;;;5061126;28;20189;-49
2020/12/14 06:31:59;;;;;;;7.45;4.82;;;3.50;99.90;;;;;;5066846;28;20190;-49
2020/12/14 06:34:31;;;;;;;9.60;4.57;;;3.50;99.90;;;;;;5069150;28;20193;-49
2020/12/14 06:37:01;;;;;;;8.48;4.55;;;3.50;99.90;;;;;;5061395;28;20178;-49
2020/12/14 06:39:36;;;;;;;5.85;3.92;;;3.50;99.90;;;;;;5061317;28;20190;-49
2020/12/14 06:42:08;;;;;;;7.88;4.45;;;3.60;99.90;;;;;;5065938;28;20185;-48
2020/12/14 06:44:55;;;;;;;8.15;4.30;;;3.60;99.90;;;;;;5062532;28;20638;-48
2020/12/14 06:47:22;;;;;;;7.68;4.03;;;3.60;99.90;;;;;;5062795;28;20501;-49
2020/12/14 06:49:48;;;;;;;7.95;4.30;;;3.70;99.90;;;;;;5061169;28;20183;-49
2020/12/14 06:52:36;;;;;;;8.23;3.95;;;3.70;99.90;;;;;;5057590;28;20212;-49
2020/12/14 06:55:03;;;;;;;8.50;4.07;;;3.70;99.90;;;;;;5059058;28;20166;-49
2020/12/14 06:57:38;;;;;;;5.80;3.78;;;3.70;99.90;;;;;;5065260;28;20186;-50
2020/12/14 07:00:05;;;;;;;6.80;4.45;;;3.70;99.90;;;;;;5062597;28;20181;-48
2020/12/14 07:02:41;;;;;;;7.30;3.92;;;3.70;99.90;;;;;;5062253;28;20182;-49
2020/12/14 07:05:29;;;;;;;8.25;4.38;;;3.70;99.90;;;;;;5062916;28;20581;-48
2020/12/14 07:07:55;;;;;;;6.75;4.10;;;3.70;99.90;;;;;;5064563;28;20193;-49
2020/12/14 07:10:25;;;;;;;5.88;3.85;;;3.70;99.90;;;;;;5061077;28;20186;-50
2020/12/14 07:12:51;;;;;;;6.90;4.20;;;3.70;99.90;;;;;;5064152;28;20240;-48
2020/12/14 07:15:25;;;;;;;8.55;4.55;;;3.70;99.90;;;;;;5064478;28;20178;-50
2020/12/14 07:18:03;;;;;;;8.48;4.38;;;3.80;99.90;;;;;;5064423;28;20193;-48
2020/12/14 07:20:29;;;;;;;9.15;3.90;;;3.80;99.90;;;;;;5064967;28;20185;-49
2020/12/14 07:23:00;;;;;;;7.78;4.28;;;3.80;99.90;;;;;;5063627;28;20206;-49
2020/12/14 07:25:26;;;;;;;8.70;4.40;;;3.80;99.90;;;;;;5067130;28;20182;-48
2020/12/14 07:27:53;;;;;;;9.73;4.15;;;3.80;99.90;;;;;;5064282;28;20198;-49
2020/12/14 07:30:19;;;;;;;6.72;4.00;;;3.80;99.90;;;;;;5060104;28;20182;-49
2020/12/14 07:32:48;;;;;;;6.18;3.92;;;3.80;99.90;;;;;;5056952;28;20211;-49
2020/12/14 07:35:15;;;;;;;7.85;3.90;;;3.80;99.90;;;;;;5063751;28;20185;-48
2020/12/14 07:37:41;;;;;;;5.88;4.00;;;3.80;99.90;;;;;;5064967;28;20281;-49
2020/12/14 07:40:08;;;;;;;6.70;4.00;;;3.80;99.90;;;;;;5062853;28;20306;-49
2020/12/14 07:42:36;;;;;;;7.30;4.30;;;3.80;99.90;;;;;;5070010;28;20186;-49
2020/12/14 07:45:27;;;;;;;7.20;4.47;;;3.80;99.90;;;;;;5060314;28;20537;-49
2020/12/14 07:47:53;;;;;;;8.13;4.65;;;3.80;99.90;;;;;;5063785;28;20194;-49
2020/12/14 07:50:23;;;;;;;9.43;3.95;;;3.70;99.90;;;;;;5063765;28;20193;-49
2020/12/14 07:52:50;;;;;;;6.10;4.03;;;3.80;99.90;;;;;;5063390;28;20241;-50
2020/12/14 07:55:16;;;;;;;7.95;4.18;;;3.70;99.90;;;;;;5061963;28;20365;-49
2020/12/14 07:57:46;;;;;;;7.47;4.47;;;3.70;99.90;;;;;;5061952;28;20666;-49
2020/12/14 08:00:14;;;;;;;9.00;4.50;;;3.70;99.90;;;;;;5067009;28;20988;-48
2020/12/14 08:02:41;;;;;;;7.38;4.40;;;3.70;99.90;;;;;;5060748;28;20193;-50
2020/12/14 08:05:12;;;;;;;6.97;4.38;;;3.70;99.90;;;;;;5066995;28;20181;-49
2020/12/14 08:07:50;;;;;;;7.53;4.53;;;3.70;99.90;;;;;;5062492;28;20178;-48
2020/12/14 08:10:19;;;;;;;6.75;4.47;;;3.70;99.90;;;;;;5067112;28;20174;-48
2020/12/14 08:12:45;;;;;;;7.22;4.18;;;3.70;99.90;;;;;;5066849;28;20225;-48
2020/12/14 08:15:22;;;;;;;7.00;4.53;;;3.70;99.90;;;;;;5060221;28;20553;-49
2020/12/14 08:17:48;;;;;;;8.02;4.63;;;3.70;99.90;;;;;;5061725;28;20166;-48
2020/12/14 08:20:28;;;;;;;7.55;4.47;;;3.70;99.90;;;;;;5065867;28;20189;-49
2020/12/14 08:22:56;;;;;;;6.20;3.97;;;3.70;99.90;;;;;;5062050;28;20173;-48
2020/12/14 08:25:27;;;;;;;7.85;4.20;;;3.70;99.90;;;;;;5067171;28;20188;-49
2020/12/14 08:28:00;;;;;;;6.97;4.43;;;3.70;99.90;;;;;;5065609;28;20181;-49
2020/12/14 08:30:27;;;;;;;8.43;4.10;;;3.70;99.90;;;;;;5062192;28;20523;-48
2020/12/14 08:33:16;;;;;;;7.57;4.68;;;3.70;99.90;;;;;;5070420;28;20578;-51
2020/12/14 08:35:44;;;;;;;7.13;3.90;;;3.70;99.90;;;;;;5067544;28;20653;-48
2020/12/14 08:38:15;;;;;;;6.85;4.40;;;3.80;99.90;;;;;;5064752;28;20178;-48
2020/12/14 08:40:52;;;;;;;9.90;4.28;;;3.80;99.90;;;;;;5064291;28;20193;-49
2020/12/14 08:43:18;;;;;;;11.85;4.47;;;3.80;99.90;;;;;;5068189;28;20184;-49
2020/12/14 08:46:05;;;;;;;6.78;4.32;;;3.80;99.90;;;;;;5067172;28;20864;-49
2020/12/14 08:48:33;;;;;;;8.70;4.53;;;3.80;99.90;;;;;;5063775;28;20612;-50
2020/12/14 08:51:04;;;;;;;9.10;4.15;;;3.90;99.90;;;;;;5058189;28;20189;-49
2020/12/14 08:53:30;;;;;;;7.15;4.70;;;3.90;99.90;;;;;;5064596;28;20237;-49
2020/12/14 08:56:02;;;;;;;8.02;4.90;;;3.90;99.90;;;;;;5063529;28;20185;-48
2020/12/14 08:58:28;;;;;;;7.55;4.15;;;3.90;99.90;;;;;;5064763;28;20186;-50
2020/12/14 09:00:54;;;;;;;6.68;4.38;;;3.90;99.90;;;;;;5067974;28;20638;-48
2020/12/14 09:03:20;;;;;;;6.65;4.45;;;3.90;99.90;;;;;;5065095;28;20186;-48
2020/12/14 09:05:46;;;;;;;8.82;4.93;;;4.00;99.90;;;;;;5066406;28;20189;-49
2020/12/14 09:08:16;;;;;;;6.22;3.97;;;4.00;99.90;;;;;;5068755;28;20645;-49
2020/12/14 09:10:55;;;;;;;8.25;4.38;;;4.10;99.90;;;;;;5063298;28;20178;-50
2020/12/14 09:13:21;;;;;;;8.35;4.13;;;4.10;99.90;;;;;;5068315;28;20214;-49
2020/12/14 09:15:53;;;;;;;7.80;4.03;;;4.10;99.90;;;;;;5069218;28;20174;-49
2020/12/14 09:18:20;;;;;;;7.53;4.22;;;4.20;99.90;;;;;;5064515;28;20185;-50
2020/12/14 09:20:46;;;;;;;7.18;4.10;;;4.20;99.90;;;;;;5066743;28;20244;-49
2020/12/14 09:23:21;;;;;;;8.23;5.15;;;4.20;99.90;;;;;;5066108;28;20178;-49
2020/12/14 09:25:48;;;;;;;11.30;5.45;;;4.20;99.90;;;;;;5063237;28;20185;-49
2020/12/14 09:28:14;;;;;;;6.53;4.20;;;4.20;99.90;;;;;;5065803;28;20190;-49
2020/12/14 09:30:40;;;;;;;11.15;4.43;;;4.20;99.90;;;;;;5061034;28;20170;-51
2020/12/14 09:33:06;;;;;;;9.75;4.18;;;4.20;99.90;;;;;;5069671;28;20221;-50
2020/12/14 09:35:32;;;;;;;8.38;4.30;;;4.20;99.90;;;;;;5065001;28;20171;-49
2020/12/14 09:37:58;;;;;;;6.78;3.90;;;4.30;99.90;;;;;;5069998;28;20186;-49
2020/12/14 09:40:24;;;;;;;8.50;4.15;;;4.30;99.90;;;;;;5067095;28;20206;-49
2020/12/14 09:42:50;;;;;;;6.78;4.32;;;4.30;99.90;;;;;;5058481;28;20183;-49
2020/12/14 09:45:17;;;;;;;9.40;4.20;;;4.30;99.90;;;;;;5064278;28;20189;-49
2020/12/14 09:47:44;;;;;;;9.00;4.10;;;4.40;99.90;;;;;;5063277;28;20181;-48
2020/12/14 09:50:11;;;;;;;6.00;3.47;;;4.50;99.90;;;;;;5068390;28;20177;-49
2020/12/14 09:52:37;;;;;;;8.13;4.30;;;4.60;99.90;;;;;;5058027;28;20509;-49
2020/12/14 09:55:03;;;;;;;6.05;3.95;;;4.60;99.90;;;;;;5064521;28;20549;-49
2020/12/14 09:57:30;;;;;;;6.97;4.00;;;4.70;99.90;;;;;;5061232;28;20512;-50
2020/12/14 09:59:56;;;;;;;6.05;4.05;;;4.80;99.90;;;;;;5069861;28;20536;-49
2020/12/14 10:02:22;;;;;;;6.22;3.30;;;4.80;99.90;;;;;;5063208;28;20520;-48
2020/12/14 10:04:48;;;;;;;7.38;3.63;;;4.80;99.90;;;;;;5066855;28;20186;-49
2020/12/14 10:07:15;;;;;;;6.55;3.88;;;4.80;99.90;;;;;;5066671;28;20177;-48
2020/12/14 10:09:41;;;;;;;5.60;3.58;;;4.80;99.90;;;;;;5061765;28;20554;-49
2020/12/14 10:12:07;;;;;;;7.30;4.07;;;4.80;99.90;;;;;;5064189;28;20528;-49
2020/12/14 10:14:36;;;;;;;5.82;3.38;;;4.90;99.90;;;;;;5057699;28;20206;-49
2020/12/14 10:17:02;;;;;;;7.07;3.63;;;4.90;99.90;;;;;;5064712;28;20190;-49
2020/12/14 10:19:29;;;;;;;5.22;3.20;;;4.90;99.90;;;;;;5061420;28;20536;-48
2020/12/14 10:21:55;;;;;;;6.65;3.55;;;4.90;99.90;;;;;;5064616;28;20182;-48
2020/12/14 10:24:21;;;;;;;7.32;4.25;;;4.90;99.90;;;;;;5063753;28;20187;-49
2020/12/14 10:26:50;;;;;;;7.03;3.55;;;4.90;99.90;;;;;;5070579;28;20197;-50
2020/12/14 10:29:17;;;;;;;6.80;3.75;;;4.90;99.90;;;;;;5062604;28;20405;-48
2020/12/14 10:31:48;;;;;;;7.57;3.97;;;5.00;99.90;;;;;;5066873;28;20174;-49
2020/12/14 10:34:14;;;;;;;7.38;3.83;;;5.00;99.90;;;;;;5065868;28;20206;-49
2020/12/14 10:36:45;;;;;;;7.15;2.85;;;5.00;99.90;;;;;;5067784;28;20185;-50
2020/12/14 10:39:11;;;;;;;9.07;3.97;;;5.00;99.90;;;;;;5065946;28;20247;-50
2020/12/14 10:41:37;;;;;;;;;;;5.40;99.90;;;;;;5065723;28;20476;-47
2020/12/14 10:44:03;;;;;;;;;;;5.80;99.90;;;;;;5065704;28;20003;-47
2020/12/14 10:46:29;;;;;;;;;;;5.70;99.90;;;;;;5057207;28;19919;-46
2020/12/14 10:48:55;;;;;;;;;;;5.60;99.90;;;;;;5060136;28;19916;-47
2020/12/14 10:51:21;;;;;;;;;;;5.50;99.90;;;;;;5068059;28;19979;-46
2020/12/14 10:53:47;;;;;;;;;;;5.40;99.90;;;;;;5060084;28;19931;-47
2020/12/14 10:56:14;;;;;;;;;;;5.30;99.90;;;;;;5060254;28;19956;-46
2020/12/14 10:58:40;;;;;;;;;;;5.30;99.90;;;;;;5063098;28;19908;-48
2020/12/14 11:01:06;;;;;;;;;;;5.30;99.90;;;;;;5062144;28;19921;-47
2020/12/14 11:03:32;;;;;;;;;;;5.30;99.90;;;;;;5068082;28;19912;-47
2020/12/14 11:05:58;;;;;;;;;;;5.30;99.90;;;;;;5072701;28;19916;-47
2020/12/14 11:08:24;;;;;;;;;;;5.30;99.90;;;;;;5067339;28;19912;-46
2020/12/14 11:10:50;;;;;;;;;;;5.30;99.90;;;;;;5062954;28;19920;-47
2020/12/14 11:13:16;;;;;;;;;;;5.40;99.90;;;;;;5065156;28;19979;-46
2020/12/14 11:15:42;;;;;;;;;;;5.40;99.90;;;;;;5057929;28;19909;-46
2020/12/14 11:18:08;;;;;;;;;;;5.50;99.90;;;;;;5063791;28;20007;-46
2020/12/14 11:20:33;;;;;;;;;;;5.60;99.90;;;;;;5060606;28;19916;-46
2020/12/14 11:22:59;;;;;;;;;;;5.70;99.90;;;;;;5065977;28;19913;-46
2020/12/14 11:25:25;;;;;;;;;;;5.70;99.90;;;;;;5064876;28;19999;-46
2020/12/14 11:27:51;;;;;;;;;;;5.80;99.90;;;;;;5060094;28;19934;-47
2020/12/14 11:30:17;;;;;;;;;;;5.80;99.90;;;;;;5064656;28;19920;-46
2020/12/14 11:32:43;;;;;;;;;;;5.80;99.90;;;;;;5061927;28;19913;-46
2020/12/14 11:35:09;;;;;;;;;;;5.70;99.90;;;;;;5069884;28;19912;-46
2020/12/14 11:37:35;;;;;;;;;;;5.70;99.90;;;;;;5063105;28;19916;-46
2020/12/14 11:40:01;;;;;;;;;;;5.70;99.90;;;;;;5067801;28;19912;-46
2020/12/14 11:42:27;;;;;;;;;;;5.70;99.90;;;;;;5070471;28;20345;-47
2020/12/14 11:44:53;;;;;;;;;;;5.70;99.90;;;;;;5068946;28;20398;-46
2020/12/14 11:47:19;;;;;;;;;;;5.80;99.90;;;;;;5068270;28;19912;-46
2020/12/14 11:49:45;;;;;;;;;;;5.70;99.90;;;;;;5061355;28;19913;-46
2020/12/14 11:52:11;;;;;;;;;;;5.70;99.90;;;;;;5063010;28;20358;-46
2020/12/14 11:54:37;;;;;;;;;;;5.70;99.90;;;;;;5064431;28;20372;-47
2020/12/14 11:57:03;;;;;;;;;;;5.70;99.90;;;;;;5054599;28;19912;-46
2020/12/14 11:59:29;;;;;;;;;;;5.60;99.90;;;;;;5069606;28;19923;-47
2020/12/14 12:01:55;;;;;;;;;;;5.60;99.90;;;;;;5067598;28;19955;-47
2020/12/14 12:04:21;;;;;;;;;;;5.60;99.90;;;;;;5069903;28;19912;-46
2020/12/14 12:06:47;;;;;;;;;;;5.50;99.90;;;;;;5073532;28;20286;-51
2020/12/14 12:09:13;;;;;;;;;;;5.50;99.90;;;;;;5062152;28;19912;-46
2020/12/14 12:11:39;;;;;;;;;;;5.50;99.90;;;;;;5062055;28;19916;-46
2020/12/14 12:14:05;;;;;;;;;;;5.50;99.90;;;;;;5063876;28;19991;-46
2020/12/14 12:16:31;;;;;;;;;;;5.50;99.90;;;;;;5064314;28;20015;-48
2020/12/14 12:18:57;;;;;;;;;;;5.50;99.90;;;;;;5060176;28;20417;-47
2020/12/14 12:21:23;;;;;;;;;;;5.50;99.90;;;;;;5070507;28;19919;-48
2020/12/14 12:23:49;;;;;;;;;;;5.50;99.90;;;;;;5069410;28;19919;-47
2020/12/14 12:26:15;;;;;;;;;;;5.50;99.90;;;;;;5062862;28;20430;-46
2020/12/14 12:28:42;;;;;;;;;;;5.50;99.90;;;;;;5065886;28;20288;-46
2020/12/14 12:31:08;;;;;;;;;;;5.50;99.90;;;;;;5070588;28;19996;-47
2020/12/14 12:33:34;;;;;;;;;;;5.50;99.90;;;;;;5066483;28;19928;-46
2020/12/14 12:36:00;;;;;;;;;;;5.50;99.90;;;;;;5064310;28;20058;-46
2020/12/14 12:38:25;;;;;;;;;;;5.50;99.90;;;;;;5062420;28;19958;-47
2020/12/14 12:40:51;;;;;;;;;;;5.50;99.90;;;;;;5063991;28;19966;-48
2020/12/14 12:43:17;;;;;;;;;;;5.40;99.90;;;;;;5069446;28;19916;-47
2020/12/14 12:45:43;;;;;;;;;;;5.40;99.90;;;;;;5065996;28;19912;-48
2020/12/14 12:48:09;;;;;;;;;;;5.40;99.90;;;;;;5071225;28;19916;-47
2020/12/14 12:50:52;;;;;;;;;;;5.40;99.90;;;;;;5066493;28;19955;-47
2020/12/14 12:53:27;;;;;;;;;;;5.30;99.90;;;;;;5068329;28;19927;-47
2020/12/14 12:55:53;;;;;;;;;;;5.30;99.90;;;;;;5067704;28;19912;-47
2020/12/14 12:58:20;;;;;;;;;;;5.30;99.90;;;;;;5068469;28;19920;-47
2020/12/14 13:00:46;;;;;;;;;;;5.30;99.90;;;;;;5061993;28;19908;-47
2020/12/14 13:03:12;;;;;;;;;;;5.40;99.90;;;;;;5067678;28;20368;-47
2020/12/14 13:05:40;;;;;;;;;;;5.40;99.90;;;;;;5067016;28;19920;-49
2020/12/14 13:08:07;;;;;;;;;;;5.40;99.90;;;;;;5064855;28;19940;-47
2020/12/14 13:10:33;;;;;;;;;;;5.40;99.90;;;;;;5065610;28;20379;-47
2020/12/14 13:12:59;;;;;;;;;;;5.40;99.90;;;;;;5062581;28;19936;-48
2020/12/14 13:15:25;;;;;;;;;;;5.40;99.90;;;;;;5064094;28;19920;-47
2020/12/14 13:17:51;;;;;;;;;;;5.40;99.90;;;;;;5068035;28;20105;-51